sensor_id;sensor_type;location;lat;lon;timestamp;pressure;altitude;pressure_sealevel;temperature;humidity
5691;BME280;2870;42.680;23.364;2023-05-21T00:00:20;94984.28;;;14.98;100.00
5691;BME280;2870;42.680;23.364;2023-05-21T00:02:47;94979.50;;;15.00;100.00
5691;BME280;2870;42.680;23.364;2023-05-21T00:05:15;94976.38;;;14.96;100.00
5691;BME280;2870;42.680;23.364;2023-05-21T00:07:43;94975.31;;;14.92;100.00
5691;BME280;2870;42.680;23.364;2023-05-21T00:10:11;94977.13;;;14.97;100.00
5691;BME280;2870;42.680;23.364;2023-05-21T00:12:38;94975.50;;;14.94;100.00
5691;BME280;2870;42.680;23.364;2023-05-21T00:15:08;94971.19;;;14.93;100.00
5691;BME280;2870;42.680;23.364;2023-05-21T00:17:35;94973.28;;;14.92;100.00
5691;BME280;2870;42.680;23.364;2023-05-21T00:20:02;94964.78;;;14.82;100.00
5691;BME280;2870;42.680;23.364;2023-05-21T00:22:33;94964.91;;;14.84;100.00
5691;BME280;2870;42.680;23.364;2023-05-21T00:25:00;94962.41;;;14.89;100.00
5691;BME280;2870;42.680;23.364;2023-05-21T00:27:27;94970.75;;;14.87;100.00
5691;BME280;2870;42.680;23.364;2023-05-21T00:29:54;94960.63;;;14.83;100.00
5691;BME280;2870;42.680;23.364;2023-05-21T00:32:22;94954.06;;;14.71;100.00
5691;BME280;2870;42.680;23.364;2023-05-21T00:34:49;94961.91;;;14.63;100.00
5691;BME280;2870;42.680;23.364;2023-05-21T00:37:16;94951.69;;;14.58;100.00
5691;BME280;2870;42.680;23.364;2023-05-21T00:39:42;94961.03;;;14.61;100.00
5691;BME280;2870;42.680;23.364;2023-05-21T00:42:09;94955.53;;;14.53;100.00
5691;BME280;2870;42.680;23.364;2023-05-21T00:44:36;94950.16;;;14.57;100.00
5691;BME280;2870;42.680;23.364;2023-05-21T00:47:04;94946.59;;;14.47;100.00
5691;BME280;2870;42.680;23.364;2023-05-21T00:49:33;94945.06;;;14.46;100.00
5691;BME280;2870;42.680;23.364;2023-05-21T00:51:59;94946.69;;;14.39;100.00
5691;BME280;2870;42.680;23.364;2023-05-21T00:54:27;94954.56;;;14.41;100.00
5691;BME280;2870;42.680;23.364;2023-05-21T00:56:54;94959.44;;;14.40;100.00
5691;BME280;2870;42.680;23.364;2023-05-21T00:59:22;94952.31;;;14.39;100.00
5691;BME280;2870;42.680;23.364;2023-05-21T01:01:51;94951.91;;;14.43;100.00
5691;BME280;2870;42.680;23.364;2023-05-21T01:04:21;94940.63;;;14.43;100.00
5691;BME280;2870;42.680;23.364;2023-05-21T01:06:49;94954.47;;;14.48;100.00
5691;BME280;2870;42.680;23.364;2023-05-21T01:09:17;94951.03;;;14.50;100.00
5691;BME280;2870;42.680;23.364;2023-05-21T01:11:46;94944.66;;;14.49;100.00
5691;BME280;2870;42.680;23.364;2023-05-21T01:14:16;94951.50;;;14.56;100.00
5691;BME280;2870;42.680;23.364;2023-05-21T01:16:46;94950.03;;;14.55;100.00
5691;BME280;2870;42.680;23.364;2023-05-21T01:19:15;94945.25;;;14.57;100.00
5691;BME280;2870;42.680;23.364;2023-05-21T01:21:44;94937.56;;;14.58;100.00
5691;BME280;2870;42.680;23.364;2023-05-21T01:24:13;94930.25;;;14.55;100.00
5691;BME280;2870;42.680;23.364;2023-05-21T01:26:40;94933.97;;;14.48;100.00
5691;BME280;2870;42.680;23.364;2023-05-21T01:29:09;94943.34;;;14.60;100.00
5691;BME280;2870;42.680;23.364;2023-05-21T01:31:44;94937.06;;;14.52;100.00
5691;BME280;2870;42.680;23.364;2023-05-21T01:34:15;94931.91;;;14.58;100.00
5691;BME280;2870;42.680;23.364;2023-05-21T01:36:59;94929.97;;;14.61;100.00
5691;BME280;2870;42.680;23.364;2023-05-21T01:39:33;94928.94;;;14.56;100.00
5691;BME280;2870;42.680;23.364;2023-05-21T01:42:02;94926.66;;;14.45;100.00
5691;BME280;2870;42.680;23.364;2023-05-21T01:44:32;94926.69;;;14.54;100.00
5691;BME280;2870;42.680;23.364;2023-05-21T01:47:01;94932.66;;;14.68;100.00
5691;BME280;2870;42.680;23.364;2023-05-21T01:49:29;94931.47;;;14.62;100.00
5691;BME280;2870;42.680;23.364;2023-05-21T01:51:56;94930.13;;;14.63;100.00
5691;BME280;2870;42.680;23.364;2023-05-21T01:54:23;94931.91;;;14.58;100.00
5691;BME280;2870;42.680;23.364;2023-05-21T01:56:51;94922.69;;;14.67;100.00
5691;BME280;2870;42.680;23.364;2023-05-21T01:59:18;94927.47;;;14.65;100.00
5691;BME280;2870;42.680;23.364;2023-05-21T02:01:44;94921.94;;;14.57;100.00
5691;BME280;2870;42.680;23.364;2023-05-21T02:04:11;94899.50;;;14.49;100.00
5691;BME280;2870;42.680;23.364;2023-05-21T02:06:38;94923.44;;;14.58;100.00
5691;BME280;2870;42.680;23.364;2023-05-21T02:09:06;94917.50;;;14.73;100.00
5691;BME280;2870;42.680;23.364;2023-05-21T02:11:33;94923.00;;;14.71;100.00
5691;BME280;2870;42.680;23.364;2023-05-21T02:14:02;94915.56;;;14.56;100.00
5691;BME280;2870;42.680;23.364;2023-05-21T02:16:29;94929.38;;;14.62;100.00
5691;BME280;2870;42.680;23.364;2023-05-21T02:18:55;94915.09;;;14.50;100.00
5691;BME280;2870;42.680;23.364;2023-05-21T02:21:24;94916.84;;;14.46;100.00
5691;BME280;2870;42.680;23.364;2023-05-21T02:23:51;94921.38;;;14.58;100.00
5691;BME280;2870;42.680;23.364;2023-05-21T02:26:18;94912.50;;;14.25;100.00
5691;BME280;2870;42.680;23.364;2023-05-21T02:28:47;94915.34;;;14.45;100.00
5691;BME280;2870;42.680;23.364;2023-05-21T02:31:15;94916.81;;;14.26;100.00
5691;BME280;2870;42.680;23.364;2023-05-21T02:33:42;94919.03;;;14.28;100.00
5691;BME280;2870;42.680;23.364;2023-05-21T02:36:08;94913.22;;;14.16;100.00
5691;BME280;2870;42.680;23.364;2023-05-21T02:38:37;94915.75;;;14.22;100.00
5691;BME280;2870;42.680;23.364;2023-05-21T02:41:08;94907.28;;;14.22;100.00
5691;BME280;2870;42.680;23.364;2023-05-21T02:43:34;94908.47;;;14.19;100.00
5691;BME280;2870;42.680;23.364;2023-05-21T02:46:01;94910.38;;;14.16;100.00
5691;BME280;2870;42.680;23.364;2023-05-21T02:48:29;94906.22;;;14.17;100.00
5691;BME280;2870;42.680;23.364;2023-05-21T02:50:57;94903.41;;;14.17;100.00
5691;BME280;2870;42.680;23.364;2023-05-21T02:53:23;94901.16;;;14.06;100.00
5691;BME280;2870;42.680;23.364;2023-05-21T02:55:51;94907.97;;;14.03;100.00
5691;BME280;2870;42.680;23.364;2023-05-21T02:58:18;94903.22;;;14.05;100.00
5691;BME280;2870;42.680;23.364;2023-05-21T03:00:47;94896.84;;;14.05;100.00
5691;BME280;2870;42.680;23.364;2023-05-21T03:03:14;94901.91;;;14.06;100.00
5691;BME280;2870;42.680;23.364;2023-05-21T03:05:42;94907.44;;;14.14;100.00
5691;BME280;2870;42.680;23.364;2023-05-21T03:08:10;94913.06;;;14.14;100.00
5691;BME280;2870;42.680;23.364;2023-05-21T03:10:36;94909.94;;;14.10;100.00
5691;BME280;2870;42.680;23.364;2023-05-21T03:13:03;94910.25;;;14.14;100.00
5691;BME280;2870;42.680;23.364;2023-05-21T03:15:31;94911.16;;;14.26;100.00
5691;BME280;2870;42.680;23.364;2023-05-21T03:17:59;94910.72;;;14.20;100.00
5691;BME280;2870;42.680;23.364;2023-05-21T03:20:26;94908.03;;;14.22;100.00
5691;BME280;2870;42.680;23.364;2023-05-21T03:22:54;94908.50;;;14.38;100.00
5691;BME280;2870;42.680;23.364;2023-05-21T03:25:21;94910.59;;;14.38;100.00
5691;BME280;2870;42.680;23.364;2023-05-21T03:27:50;94914.31;;;14.40;100.00
5691;BME280;2870;42.680;23.364;2023-05-21T03:30:17;94919.94;;;14.40;100.00
5691;BME280;2870;42.680;23.364;2023-05-21T03:32:44;94917.41;;;14.35;100.00
5691;BME280;2870;42.680;23.364;2023-05-21T03:35:11;94920.81;;;14.33;100.00
5691;BME280;2870;42.680;23.364;2023-05-21T03:37:37;94919.19;;;14.40;100.00
5691;BME280;2870;42.680;23.364;2023-05-21T03:40:07;94915.03;;;14.41;100.00
5691;BME280;2870;42.680;23.364;2023-05-21T03:42:34;94922.69;;;14.48;100.00
5691;BME280;2870;42.680;23.364;2023-05-21T03:45:02;94918.19;;;14.45;100.00
5691;BME280;2870;42.680;23.364;2023-05-21T03:47:29;94917.72;;;14.39;100.00
5691;BME280;2870;42.680;23.364;2023-05-21T03:49:56;94922.09;;;14.49;100.00
5691;BME280;2870;42.680;23.364;2023-05-21T03:52:22;94918.97;;;14.55;100.00
5691;BME280;2870;42.680;23.364;2023-05-21T03:54:49;94926.84;;;14.56;100.00
5691;BME280;2870;42.680;23.364;2023-05-21T03:57:17;94913.47;;;14.57;100.00
5691;BME280;2870;42.680;23.364;2023-05-21T03:59:44;94920.34;;;14.64;100.00
5691;BME280;2870;42.680;23.364;2023-05-21T04:02:11;94920.31;;;14.73;100.00
5691;BME280;2870;42.680;23.364;2023-05-21T04:04:37;94914.69;;;14.64;100.00
5691;BME280;2870;42.680;23.364;2023-05-21T04:07:04;94921.66;;;14.72;100.00
5691;BME280;2870;42.680;23.364;2023-05-21T04:09:39;94920.03;;;14.89;100.00
5691;BME280;2870;42.680;23.364;2023-05-21T04:12:06;94917.22;;;14.79;100.00
5691;BME280;2870;42.680;23.364;2023-05-21T04:14:34;94910.09;;;14.88;100.00
5691;BME280;2870;42.680;23.364;2023-05-21T04:17:02;94914.69;;;14.93;100.00
5691;BME280;2870;42.680;23.364;2023-05-21T04:19:30;94913.06;;;14.90;100.00
5691;BME280;2870;42.680;23.364;2023-05-21T04:21:57;94921.22;;;14.85;100.00
5691;BME280;2870;42.680;23.364;2023-05-21T04:24:24;94911.41;;;15.06;100.00
5691;BME280;2870;42.680;23.364;2023-05-21T04:26:50;94914.53;;;15.00;100.00
5691;BME280;2870;42.680;23.364;2023-05-21T04:29:17;94912.47;;;15.01;100.00
5691;BME280;2870;42.680;23.364;2023-05-21T04:31:47;94916.59;;;15.19;100.00
5691;BME280;2870;42.680;23.364;2023-05-21T04:34:15;94919.72;;;15.23;100.00
5691;BME280;2870;42.680;23.364;2023-05-21T04:36:43;94921.66;;;15.30;100.00
5691;BME280;2870;42.680;23.364;2023-05-21T04:39:10;94920.47;;;15.33;100.00
5691;BME280;2870;42.680;23.364;2023-05-21T04:41:37;94918.28;;;14.93;100.00
5691;BME280;2870;42.680;23.364;2023-05-21T04:44:06;94923.16;;;15.12;100.00
5691;BME280;2870;42.680;23.364;2023-05-21T04:46:33;94920.78;;;15.18;100.00
5691;BME280;2870;42.680;23.364;2023-05-21T04:49:01;94920.03;;;15.18;100.00
5691;BME280;2870;42.680;23.364;2023-05-21T04:51:28;94920.47;;;15.14;100.00
5691;BME280;2870;42.680;23.364;2023-05-21T04:53:55;94931.34;;;15.27;100.00
5691;BME280;2870;42.680;23.364;2023-05-21T04:56:23;94926.25;;;15.35;100.00
5691;BME280;2870;42.680;23.364;2023-05-21T04:58:51;94921.34;;;15.46;100.00
5691;BME280;2870;42.680;23.364;2023-05-21T05:01:19;94923.72;;;15.49;100.00
5691;BME280;2870;42.680;23.364;2023-05-21T05:03:48;94917.00;;;15.54;100.00
5691;BME280;2870;42.680;23.364;2023-05-21T05:06:16;94919.97;;;15.56;100.00
5691;BME280;2870;42.680;23.364;2023-05-21T05:08:43;94925.47;;;15.64;100.00
5691;BME280;2870;42.680;23.364;2023-05-21T05:11:10;94920.13;;;15.68;100.00
5691;BME280;2870;42.680;23.364;2023-05-21T05:13:38;94932.16;;;15.78;100.00
5691;BME280;2870;42.680;23.364;2023-05-21T05:16:05;94927.97;;;15.79;100.00
5691;BME280;2870;42.680;23.364;2023-05-21T05:18:32;94914.75;;;15.72;100.00
5691;BME280;2870;42.680;23.364;2023-05-21T05:20:59;94933.34;;;16.16;100.00
5691;BME280;2870;42.680;23.364;2023-05-21T05:23:28;94929.44;;;16.21;97.24
5691;BME280;2870;42.680;23.364;2023-05-21T05:25:54;94936.50;;;16.41;96.90
5691;BME280;2870;42.680;23.364;2023-05-21T05:28:21;94925.97;;;16.32;95.66
5691;BME280;2870;42.680;23.364;2023-05-21T05:30:48;94921.81;;;16.55;96.34
5691;BME280;2870;42.680;23.364;2023-05-21T05:33:15;94926.53;;;16.62;93.49
5691;BME280;2870;42.680;23.364;2023-05-21T05:35:41;94926.66;;;16.74;93.26
5691;BME280;2870;42.680;23.364;2023-05-21T05:38:08;94925.88;;;16.73;93.87
5691;BME280;2870;42.680;23.364;2023-05-21T05:40:37;94922.03;;;16.90;92.50
5691;BME280;2870;42.680;23.364;2023-05-21T05:43:04;94926.28;;;17.01;91.03
5691;BME280;2870;42.680;23.364;2023-05-21T05:45:30;94922.81;;;16.90;89.40
5691;BME280;2870;42.680;23.364;2023-05-21T05:47:57;94925.59;;;17.12;89.15
5691;BME280;2870;42.680;23.364;2023-05-21T05:50:24;94923.06;;;16.94;91.31
5691;BME280;2870;42.680;23.364;2023-05-21T05:52:51;94918.81;;;16.84;89.50
5691;BME280;2870;42.680;23.364;2023-05-21T05:55:18;94933.09;;;17.07;91.33
5691;BME280;2870;42.680;23.364;2023-05-21T05:57:47;94936.56;;;17.39;86.68
5691;BME280;2870;42.680;23.364;2023-05-21T06:00:15;94928.94;;;17.08;87.82
5691;BME280;2870;42.680;23.364;2023-05-21T06:02:42;94921.94;;;17.21;84.86
5691;BME280;2870;42.680;23.364;2023-05-21T06:05:09;94925.00;;;17.46;86.86
5691;BME280;2870;42.680;23.364;2023-05-21T06:07:36;94925.78;;;17.59;79.01
5691;BME280;2870;42.680;23.364;2023-05-21T06:10:04;94925.13;;;17.48;82.36
5691;BME280;2870;42.680;23.364;2023-05-21T06:12:31;94913.19;;;17.62;87.62
5691;BME280;2870;42.680;23.364;2023-05-21T06:14:59;94913.53;;;18.01;84.54
5691;BME280;2870;42.680;23.364;2023-05-21T06:17:26;94909.59;;;17.94;82.24
5691;BME280;2870;42.680;23.364;2023-05-21T06:19:53;94917.00;;;18.11;84.90
5691;BME280;2870;42.680;23.364;2023-05-21T06:22:20;94913.91;;;18.31;79.57
5691;BME280;2870;42.680;23.364;2023-05-21T06:24:46;94918.97;;;18.32;77.06
5691;BME280;2870;42.680;23.364;2023-05-21T06:27:13;94914.88;;;18.59;78.75
5691;BME280;2870;42.680;23.364;2023-05-21T06:29:40;94912.41;;;18.65;79.39
5691;BME280;2870;42.680;23.364;2023-05-21T06:32:08;94898.72;;;18.02;77.07
5691;BME280;2870;42.680;23.364;2023-05-21T06:34:35;94912.53;;;18.43;77.28
5691;BME280;2870;42.680;23.364;2023-05-21T06:37:02;94912.78;;;18.71;77.60
5691;BME280;2870;42.680;23.364;2023-05-21T06:39:29;94905.00;;;18.71;78.05
5691;BME280;2870;42.680;23.364;2023-05-21T06:41:55;94908.97;;;18.78;76.12
5691;BME280;2870;42.680;23.364;2023-05-21T06:44:22;94902.69;;;18.68;76.72
5691;BME280;2870;42.680;23.364;2023-05-21T06:46:49;94904.44;;;18.98;75.14
5691;BME280;2870;42.680;23.364;2023-05-21T06:49:17;94897.34;;;19.11;73.59
5691;BME280;2870;42.680;23.364;2023-05-21T06:51:44;94896.00;;;19.12;73.58
5691;BME280;2870;42.680;23.364;2023-05-21T06:54:11;94893.28;;;19.40;70.85
5691;BME280;2870;42.680;23.364;2023-05-21T06:56:38;94899.72;;;19.66;70.25
5691;BME280;2870;42.680;23.364;2023-05-21T06:59:04;94898.91;;;19.63;69.19
5691;BME280;2870;42.680;23.364;2023-05-21T07:01:31;94901.53;;;19.73;67.38
5691;BME280;2870;42.680;23.364;2023-05-21T07:03:58;94905.75;;;20.11;69.30
5691;BME280;2870;42.680;23.364;2023-05-21T07:06:26;94891.63;;;20.27;67.37
5691;BME280;2870;42.680;23.364;2023-05-21T07:08:53;94892.47;;;20.16;68.68
5691;BME280;2870;42.680;23.364;2023-05-21T07:11:20;94896.97;;;20.07;66.35
5691;BME280;2870;42.680;23.364;2023-05-21T07:13:49;94892.25;;;20.11;67.20
5691;BME280;2870;42.680;23.364;2023-05-21T07:16:16;94894.81;;;20.33;68.71
5691;BME280;2870;42.680;23.364;2023-05-21T07:18:43;94893.00;;;20.26;64.92
5691;BME280;2870;42.680;23.364;2023-05-21T07:21:10;94886.25;;;20.33;65.64
5691;BME280;2870;42.680;23.364;2023-05-21T07:23:38;94896.38;;;20.36;69.37
5691;BME280;2870;42.680;23.364;2023-05-21T07:26:05;94893.88;;;20.42;69.10
5691;BME280;2870;42.680;23.364;2023-05-21T07:28:32;94896.06;;;20.16;65.91
5691;BME280;2870;42.680;23.364;2023-05-21T07:30:59;94885.41;;;20.44;67.39
5691;BME280;2870;42.680;23.364;2023-05-21T07:33:25;94907.94;;;20.66;66.30
5691;BME280;2870;42.680;23.364;2023-05-21T07:35:53;94898.69;;;20.95;65.44
5691;BME280;2870;42.680;23.364;2023-05-21T07:38:19;94892.50;;;20.57;66.92
5691;BME280;2870;42.680;23.364;2023-05-21T07:40:48;94898.97;;;21.14;63.35
5691;BME280;2870;42.680;23.364;2023-05-21T07:43:15;94900.56;;;21.17;65.81
5691;BME280;2870;42.680;23.364;2023-05-21T07:45:41;94896.53;;;20.66;60.06
5691;BME280;2870;42.680;23.364;2023-05-21T07:48:08;94911.31;;;21.62;60.77
5691;BME280;2870;42.680;23.364;2023-05-21T07:50:36;94901.66;;;21.69;55.10
5691;BME280;2870;42.680;23.364;2023-05-21T07:53:03;94900.97;;;21.85;58.44
5691;BME280;2870;42.680;23.364;2023-05-21T07:55:29;94902.75;;;21.62;55.86
5691;BME280;2870;42.680;23.364;2023-05-21T07:57:57;94899.97;;;22.57;54.57
5691;BME280;2870;42.680;23.364;2023-05-21T08:00:25;94893.78;;;23.48;46.78
5691;BME280;2870;42.680;23.364;2023-05-21T08:02:52;94902.25;;;23.79;46.27
5691;BME280;2870;42.680;23.364;2023-05-21T08:05:19;94906.00;;;24.22;42.09
5691;BME280;2870;42.680;23.364;2023-05-21T08:07:47;94905.66;;;23.40;41.85
5691;BME280;2870;42.680;23.364;2023-05-21T08:10:14;94898.97;;;23.00;42.48
5691;BME280;2870;42.680;23.364;2023-05-21T08:12:41;94910.19;;;22.62;42.16
5691;BME280;2870;42.680;23.364;2023-05-21T08:15:10;94909.13;;;22.38;42.32
5691;BME280;2870;42.680;23.364;2023-05-21T08:17:37;94906.78;;;22.50;42.46
5691;BME280;2870;42.680;23.364;2023-05-21T08:20:04;94904.75;;;23.53;42.15
5691;BME280;2870;42.680;23.364;2023-05-21T08:22:31;94896.72;;;24.03;41.54
5691;BME280;2870;42.680;23.364;2023-05-21T08:24:58;94897.31;;;24.00;40.61
5691;BME280;2870;42.680;23.364;2023-05-21T08:27:25;94899.03;;;24.65;38.98
5691;BME280;2870;42.680;23.364;2023-05-21T08:29:51;94890.94;;;24.39;40.00
5691;BME280;2870;42.680;23.364;2023-05-21T08:32:19;94901.34;;;24.30;39.78
5691;BME280;2870;42.680;23.364;2023-05-21T08:34:46;94892.25;;;23.80;39.47
5691;BME280;2870;42.680;23.364;2023-05-21T08:37:13;94898.34;;;23.19;41.31
5691;BME280;2870;42.680;23.364;2023-05-21T08:39:40;94896.34;;;22.72;41.68
5691;BME280;2870;42.680;23.364;2023-05-21T08:42:12;94892.72;;;23.21;40.10
5691;BME280;2870;42.680;23.364;2023-05-21T08:44:42;94899.44;;;23.28;40.25
5691;BME280;2870;42.680;23.364;2023-05-21T08:47:15;94894.06;;;23.90;39.78
5691;BME280;2870;42.680;23.364;2023-05-21T08:49:46;94905.09;;;23.62;39.05
5691;BME280;2870;42.680;23.364;2023-05-21T08:52:14;94907.13;;;23.59;39.44
5691;BME280;2870;42.680;23.364;2023-05-21T08:54:42;94900.00;;;23.42;39.84
5691;BME280;2870;42.680;23.364;2023-05-21T08:57:10;94892.00;;;23.21;40.71
5691;BME280;2870;42.680;23.364;2023-05-21T08:59:38;94901.28;;;23.04;40.37
5691;BME280;2870;42.680;23.364;2023-05-21T09:02:10;94898.31;;;23.71;39.40
5691;BME280;2870;42.680;23.364;2023-05-21T09:04:39;94890.53;;;23.38;39.37
5691;BME280;2870;42.680;23.364;2023-05-21T09:07:09;94907.66;;;23.20;41.07
5691;BME280;2870;42.680;23.364;2023-05-21T09:09:41;94898.66;;;22.92;41.14
5691;BME280;2870;42.680;23.364;2023-05-21T09:12:11;94898.28;;;23.17;42.44
5691;BME280;2870;42.680;23.364;2023-05-21T09:14:38;94898.72;;;23.27;42.39
5691;BME280;2870;42.680;23.364;2023-05-21T09:17:06;94896.81;;;23.16;40.21
5691;BME280;2870;42.680;23.364;2023-05-21T09:19:33;94899.50;;;22.63;41.82
5691;BME280;2870;42.680;23.364;2023-05-21T09:22:03;94890.13;;;23.27;41.09
5691;BME280;2870;42.680;23.364;2023-05-21T09:24:31;94888.09;;;24.21;40.00
5691;BME280;2870;42.680;23.364;2023-05-21T09:26:58;94897.81;;;23.94;38.03
5691;BME280;2870;42.680;23.364;2023-05-21T09:29:25;94903.91;;;24.22;39.41
5691;BME280;2870;42.680;23.364;2023-05-21T09:31:52;94902.34;;;23.64;38.40
5691;BME280;2870;42.680;23.364;2023-05-21T09:34:20;94897.06;;;23.40;39.30
5691;BME280;2870;42.680;23.364;2023-05-21T09:36:47;94896.34;;;23.58;38.75
5691;BME280;2870;42.680;23.364;2023-05-21T09:39:26;94898.97;;;23.34;38.76
5691;BME280;2870;42.680;23.364;2023-05-21T09:41:56;94891.84;;;23.70;37.49
5691;BME280;2870;42.680;23.364;2023-05-21T09:44:23;94889.50;;;23.83;37.38
5691;BME280;2870;42.680;23.364;2023-05-21T09:46:55;94888.03;;;24.19;37.25
5691;BME280;2870;42.680;23.364;2023-05-21T09:49:24;94888.56;;;24.33;38.41
5691;BME280;2870;42.680;23.364;2023-05-21T09:51:54;94884.84;;;24.49;36.20
5691;BME280;2870;42.680;23.364;2023-05-21T09:54:21;94881.97;;;24.49;36.20
5691;BME280;2870;42.680;23.364;2023-05-21T09:56:48;94882.94;;;24.75;34.48
5691;BME280;2870;42.680;23.364;2023-05-21T09:59:18;94889.09;;;25.29;32.57
5691;BME280;2870;42.680;23.364;2023-05-21T10:01:46;94875.28;;;25.89;36.88
5691;BME280;2870;42.680;23.364;2023-05-21T10:04:16;94876.63;;;25.64;34.18
5691;BME280;2870;42.680;23.364;2023-05-21T10:06:43;94868.16;;;25.25;33.87
5691;BME280;2870;42.680;23.364;2023-05-21T10:09:14;94865.78;;;25.41;33.86
5691;BME280;2870;42.680;23.364;2023-05-21T10:11:43;94873.41;;;25.98;33.26
5691;BME280;2870;42.680;23.364;2023-05-21T10:14:18;94886.91;;;26.17;31.70
5691;BME280;2870;42.680;23.364;2023-05-21T10:16:47;94874.22;;;26.03;32.67
5691;BME280;2870;42.680;23.364;2023-05-21T10:19:14;94870.31;;;25.04;34.76
5691;BME280;2870;42.680;23.364;2023-05-21T10:21:41;94861.38;;;24.74;37.19
5691;BME280;2870;42.680;23.364;2023-05-21T10:24:09;94869.56;;;25.04;35.16
5691;BME280;2870;42.680;23.364;2023-05-21T10:26:37;94871.63;;;26.11;33.43
5691;BME280;2870;42.680;23.364;2023-05-21T10:29:06;94868.19;;;25.71;33.07
5691;BME280;2870;42.680;23.364;2023-05-21T10:31:37;94862.00;;;25.56;34.43
5691;BME280;2870;42.680;23.364;2023-05-21T10:34:04;94859.91;;;24.53;35.34
5691;BME280;2870;42.680;23.364;2023-05-21T10:36:31;94857.69;;;24.92;35.25
5691;BME280;2870;42.680;23.364;2023-05-21T10:38:59;94856.78;;;25.51;34.41
5691;BME280;2870;42.680;23.364;2023-05-21T10:41:31;94858.44;;;25.80;33.97
5691;BME280;2870;42.680;23.364;2023-05-21T10:44:07;94854.31;;;24.18;35.53
5691;BME280;2870;42.680;23.364;2023-05-21T10:46:54;94848.09;;;23.68;36.48
5691;BME280;2870;42.680;23.364;2023-05-21T10:49:41;94852.22;;;24.00;37.21
5691;BME280;2870;42.680;23.364;2023-05-21T10:52:20;94852.22;;;24.00;36.72
5691;BME280;2870;42.680;23.364;2023-05-21T10:55:05;94844.53;;;23.87;38.07
5691;BME280;2870;42.680;23.364;2023-05-21T11:00:45;94834.00;;;22.04;41.07
5691;BME280;2870;42.680;23.364;2023-05-21T11:03:14;94839.34;;;22.27;41.18
5691;BME280;2870;42.680;23.364;2023-05-21T11:05:50;94847.81;;;22.41;41.86
5691;BME280;2870;42.680;23.364;2023-05-21T11:08:20;94846.91;;;22.20;41.20
5691;BME280;2870;42.680;23.364;2023-05-21T11:10:51;94844.31;;;22.11;42.00
5691;BME280;2870;42.680;23.364;2023-05-21T11:13:18;94839.84;;;21.60;42.04
5691;BME280;2870;42.680;23.364;2023-05-21T11:16:05;94837.78;;;21.92;42.79
5691;BME280;2870;42.680;23.364;2023-05-21T11:19:01;94825.78;;;22.43;41.10
5691;BME280;2870;42.680;23.364;2023-05-21T11:21:29;94826.88;;;22.52;41.29
5691;BME280;2870;42.680;23.364;2023-05-21T11:23:59;94828.28;;;22.69;41.56
5691;BME280;2870;42.680;23.364;2023-05-21T11:26:29;94822.25;;;22.79;43.10
5691;BME280;2870;42.680;23.364;2023-05-21T11:29:09;94821.88;;;22.86;41.62
5691;BME280;2870;42.680;23.364;2023-05-21T11:31:36;94815.81;;;22.78;42.78
5691;BME280;2870;42.680;23.364;2023-05-21T11:34:17;94814.38;;;22.28;42.06
5691;BME280;2870;42.680;23.364;2023-05-21T11:36:45;94815.06;;;22.44;42.39
5691;BME280;2870;42.680;23.364;2023-05-21T11:39:13;94813.16;;;22.33;43.17
5691;BME280;2870;42.680;23.364;2023-05-21T11:41:51;94821.19;;;22.05;42.80
5691;BME280;2870;42.680;23.364;2023-05-21T11:44:21;94816.31;;;21.91;42.35
5691;BME280;2870;42.680;23.364;2023-05-21T11:47:04;94816.03;;;22.33;41.66
5691;BME280;2870;42.680;23.364;2023-05-21T11:49:33;94812.28;;;22.46;43.70
5691;BME280;2870;42.680;23.364;2023-05-21T11:52:00;94812.63;;;22.20;40.75
5691;BME280;2870;42.680;23.364;2023-05-21T11:54:27;94811.78;;;22.02;43.87
5691;BME280;2870;42.680;23.364;2023-05-21T11:57:01;94805.88;;;21.66;42.91
5691;BME280;2870;42.680;23.364;2023-05-21T11:59:28;94814.56;;;21.68;42.88
5691;BME280;2870;42.680;23.364;2023-05-21T12:01:55;94816.72;;;21.54;44.04
5691;BME280;2870;42.680;23.364;2023-05-21T12:04:23;94813.59;;;21.18;46.01
5691;BME280;2870;42.680;23.364;2023-05-21T12:06:56;94815.88;;;21.06;46.79
5691;BME280;2870;42.680;23.364;2023-05-21T12:09:24;94810.50;;;20.99;47.42
5691;BME280;2870;42.680;23.364;2023-05-21T12:11:51;94789.34;;;20.88;49.35
5691;BME280;2870;42.680;23.364;2023-05-21T12:14:20;94811.16;;;20.97;50.81
5691;BME280;2870;42.680;23.364;2023-05-21T12:16:47;94800.31;;;21.09;49.51
5691;BME280;2870;42.680;23.364;2023-05-21T12:19:16;94801.31;;;21.00;49.62
5691;BME280;2870;42.680;23.364;2023-05-21T12:21:43;94811.06;;;20.95;49.46
5691;BME280;2870;42.680;23.364;2023-05-21T12:24:11;94804.66;;;21.10;49.83
5691;BME280;2870;42.680;23.364;2023-05-21T12:26:37;94796.81;;;20.95;49.72
5691;BME280;2870;42.680;23.364;2023-05-21T12:29:06;94802.38;;;20.93;50.02
5691;BME280;2870;42.680;23.364;2023-05-21T12:31:46;94786.19;;;20.82;48.42
5691;BME280;2870;42.680;23.364;2023-05-21T12:34:13;94788.63;;;21.03;48.31
5691;BME280;2870;42.680;23.364;2023-05-21T12:36:43;94800.59;;;21.29;48.90
5691;BME280;2870;42.680;23.364;2023-05-21T12:39:14;94785.53;;;21.13;48.47
5691;BME280;2870;42.680;23.364;2023-05-21T12:41:42;94786.25;;;21.13;48.00
5691;BME280;2870;42.680;23.364;2023-05-21T12:44:10;94768.72;;;20.89;48.18
5691;BME280;2870;42.680;23.364;2023-05-21T12:46:37;94783.31;;;21.11;48.25
5691;BME280;2870;42.680;23.364;2023-05-21T12:49:04;94780.06;;;21.33;48.28
5691;BME280;2870;42.680;23.364;2023-05-21T12:51:37;94780.19;;;21.21;48.68
5691;BME280;2870;42.680;23.364;2023-05-21T12:54:10;94778.19;;;21.24;47.95
5691;BME280;2870;42.680;23.364;2023-05-21T12:56:44;94779.09;;;21.12;48.18
5691;BME280;2870;42.680;23.364;2023-05-21T12:59:13;94790.25;;;21.22;48.91
5691;BME280;2870;42.680;23.364;2023-05-21T13:01:40;94785.56;;;21.29;48.24
5691;BME280;2870;42.680;23.364;2023-05-21T13:04:07;94781.13;;;21.26;49.13
5691;BME280;2870;42.680;23.364;2023-05-21T13:06:43;94772.69;;;21.28;48.53
5691;BME280;2870;42.680;23.364;2023-05-21T13:09:10;94778.28;;;21.26;49.89
5691;BME280;2870;42.680;23.364;2023-05-21T13:11:37;94779.19;;;21.14;50.85
5691;BME280;2870;42.680;23.364;2023-05-21T13:14:05;94764.91;;;21.14;55.91
5691;BME280;2870;42.680;23.364;2023-05-21T13:16:31;94776.16;;;21.10;56.55